createdAt,value
2022-10-22T00:00:52.881Z,12.77
2022-10-22T00:03:20.819Z,13.05
2022-10-22T00:05:48.581Z,18.50
2022-10-22T00:08:16.027Z,15.02
2022-10-22T00:10:43.753Z,13.35
2022-10-22T00:13:11.415Z,10.17
2022-10-22T00:15:39.125Z,13.57
2022-10-22T00:18:06.872Z,12.20
2022-10-22T00:20:34.378Z,12.63
2022-10-22T00:23:01.862Z,11.77
2022-10-22T00:25:29.667Z,11.13
2022-10-22T00:27:57.144Z,15.70
2022-10-22T00:30:24.599Z,13.07
2022-10-22T00:32:52.341Z,12.57
2022-10-22T00:35:19.804Z,13.27
2022-10-22T00:37:47.306Z,13.13
2022-10-22T00:40:15.127Z,13.10
2022-10-22T00:42:43.051Z,10.15
2022-10-22T00:45:10.627Z,14.05
2022-10-22T00:47:41.082Z,11.23
2022-10-22T00:50:14.755Z,14.47
2022-10-22T00:52:43.755Z,13.30
2022-10-22T00:55:11.750Z,11.57
2022-10-22T00:57:39.200Z,13.73
2022-10-22T01:00:07.952Z,11.77
2022-10-22T01:02:35.793Z,14.97
2022-10-22T01:05:03.664Z,15.45
2022-10-22T01:07:31.532Z,14.68
2022-10-22T01:10:26.462Z,14.38
2022-10-22T01:13:17.680Z,14.75
2022-10-22T01:15:56.507Z,15.23
2022-10-22T01:18:48.964Z,13.50
2022-10-22T01:21:28.351Z,13.80
2022-10-22T01:24:08.124Z,14.38
2022-10-22T01:27:03.184Z,12.95
2022-10-22T01:29:39.409Z,15.20
2022-10-22T01:32:16.692Z,13.23
2022-10-22T01:34:48.960Z,17.12
2022-10-22T01:37:18.280Z,15.48
2022-10-22T01:39:47.242Z,11.95
2022-10-22T01:42:14.937Z,12.70
2022-10-22T01:44:42.673Z,13.02
2022-10-22T01:47:32.921Z,16.15
2022-10-22T01:50:27.725Z,10.77
2022-10-22T01:53:10.526Z,12.95
2022-10-22T01:56:21.656Z,11.07
2022-10-22T01:59:18.552Z,12.95
2022-10-22T02:01:59.884Z,17.80
2022-10-22T02:04:38.364Z,18.42
2022-10-22T02:07:09.468Z,14.77
2022-10-22T02:09:38.107Z,16.40
2022-10-22T02:12:07.350Z,14.82
2022-10-22T02:14:37.462Z,13.02
2022-10-22T02:17:07.380Z,13.85
2022-10-22T02:19:54.446Z,11.75
2022-10-22T02:22:23.888Z,16.37
2022-10-22T02:24:51.320Z,16.23
2022-10-22T02:27:25.825Z,13.05
2022-10-22T02:30:09.865Z,12.48
2022-10-22T02:32:54.253Z,14.43
2022-10-22T02:35:24.963Z,15.10
2022-10-22T02:37:53.228Z,13.43
2022-10-22T02:40:21.170Z,12.98
2022-10-22T02:42:50.420Z,15.02
2022-10-22T02:45:18.848Z,14.98
2022-10-22T02:47:47.184Z,11.70
2022-10-22T02:50:15.048Z,18.08
2022-10-22T02:52:42.900Z,12.90
2022-10-22T02:55:10.709Z,15.85
2022-10-22T02:57:38.622Z,14.15
2022-10-22T03:00:07.799Z,12.73
2022-10-22T03:02:35.520Z,12.57
2022-10-22T03:05:04.161Z,12.43
2022-10-22T03:07:31.756Z,10.93
2022-10-22T03:09:59.248Z,13.45
2022-10-22T03:12:26.999Z,12.90
2022-10-22T03:14:54.444Z,13.68
2022-10-22T03:17:21.886Z,12.93
2022-10-22T03:19:49.651Z,17.17
2022-10-22T03:22:22.352Z,13.57
2022-10-22T03:24:52.823Z,12.43
2022-10-22T03:27:21.532Z,12.05
2022-10-22T03:29:50.889Z,12.70
2022-10-22T03:32:19.079Z,11.60
2022-10-22T03:34:46.615Z,11.10
2022-10-22T03:37:14.288Z,12.63
2022-10-22T03:39:42.074Z,14.73
2022-10-22T03:42:09.607Z,11.60
2022-10-22T03:44:38.356Z,15.85
2022-10-22T03:47:06.550Z,15.38
2022-10-22T03:49:33.966Z,12.73
2022-10-22T03:52:09.096Z,14.73
2022-10-22T03:57:10.024Z,14.23
2022-10-22T03:59:40.523Z,14.82
2022-10-22T04:02:08.270Z,12.87
2022-10-22T04:04:36.577Z,14.68
2022-10-22T04:07:05.499Z,13.10
2022-10-22T04:09:33.970Z,13.35
2022-10-22T04:12:01.755Z,12.10
2022-10-22T04:14:29.114Z,17.33
2022-10-22T04:16:56.557Z,16.90
2022-10-22T04:19:24.339Z,12.95
2022-10-22T04:21:51.819Z,13.90
2022-10-22T04:24:19.209Z,11.27
2022-10-22T04:26:46.904Z,14.50
2022-10-22T04:29:16.159Z,11.65
2022-10-22T04:31:43.980Z,12.02
2022-10-22T04:34:11.711Z,14.48
2022-10-22T04:36:39.115Z,12.70
2022-10-22T04:39:06.956Z,14.60
2022-10-22T04:41:38.031Z,15.68
2022-10-22T04:44:06.369Z,17.77
2022-10-22T04:46:35.106Z,13.23
2022-10-22T04:49:06.057Z,11.23
2022-10-22T04:51:33.510Z,14.03
2022-10-22T04:54:01.031Z,13.00
2022-10-22T04:56:30.461Z,11.48
2022-10-22T04:59:00.975Z,13.77
2022-10-22T05:01:31.035Z,16.33
2022-10-22T05:04:01.602Z,13.20
2022-10-22T05:06:31.895Z,20.62
2022-10-22T05:09:01.786Z,16.83
2022-10-22T05:11:33.973Z,18.48
2022-10-22T05:14:03.659Z,16.87
2022-10-22T05:16:32.697Z,18.77
2022-10-22T05:19:01.200Z,14.60
2022-10-22T05:21:28.944Z,16.12
2022-10-22T05:23:59.648Z,15.80
2022-10-22T05:26:28.180Z,16.92
2022-10-22T05:28:55.692Z,14.60
2022-10-22T05:31:23.785Z,13.35
2022-10-22T05:33:51.164Z,13.45
2022-10-22T05:36:20.356Z,15.77
2022-10-22T05:38:49.289Z,17.33
2022-10-22T05:41:24.631Z,17.33
2022-10-22T05:43:55.016Z,13.65
2022-10-22T05:46:23.556Z,13.32
2022-10-22T05:48:59.707Z,12.93
2022-10-22T05:51:29.031Z,13.98
2022-10-22T05:53:58.868Z,13.07
2022-10-22T05:56:27.387Z,17.52
2022-10-22T05:58:55.359Z,12.23
2022-10-22T06:01:25.043Z,17.55
2022-10-22T06:04:04.560Z,14.52
2022-10-22T06:06:35.077Z,14.03
2022-10-22T06:09:15.042Z,12.10
2022-10-22T06:11:42.577Z,15.63
2022-10-22T06:14:11.042Z,13.15
2022-10-22T06:16:38.573Z,15.02
2022-10-22T06:19:06.367Z,17.00
2022-10-22T06:21:34.116Z,12.20
2022-10-22T06:24:02.421Z,15.75
2022-10-22T06:26:30.606Z,12.00
2022-10-22T06:28:58.730Z,14.48
2022-10-22T06:31:27.057Z,18.10
2022-10-22T06:33:55.059Z,17.90
2022-10-22T06:36:24.222Z,18.40
2022-10-22T06:38:52.675Z,21.77
2022-10-22T06:41:22.161Z,17.25
2022-10-22T06:43:53.620Z,26.80
2022-10-22T06:46:22.043Z,24.40
2022-10-22T06:48:59.204Z,21.45
2022-10-22T06:51:27.819Z,23.15
2022-10-22T06:53:56.899Z,18.35
2022-10-22T06:56:26.548Z,19.47
2022-10-22T06:58:55.953Z,20.42
2022-10-22T07:01:26.098Z,16.92
2022-10-22T07:03:54.101Z,17.30
2022-10-22T07:06:22.818Z,18.42
2022-10-22T07:08:50.665Z,19.77
2022-10-22T07:11:21.267Z,17.42
2022-10-22T07:13:49.161Z,16.87
2022-10-22T07:16:18.019Z,17.23
2022-10-22T07:18:46.506Z,17.48
2022-10-22T07:21:15.981Z,20.60
2022-10-22T07:23:43.803Z,22.80
2022-10-22T07:26:13.731Z,22.10
2022-10-22T07:28:41.238Z,26.52
2022-10-22T07:31:11.153Z,34.88
2022-10-22T07:33:39.516Z,24.87
2022-10-22T07:36:09.534Z,18.90
2022-10-22T07:38:37.285Z,17.95
2022-10-22T07:41:05.143Z,16.90
2022-10-22T07:43:32.544Z,16.12
2022-10-22T07:46:00.444Z,21.77
2022-10-22T07:48:28.810Z,21.73
2022-10-22T07:50:58.288Z,22.02
2022-10-22T07:53:25.744Z,18.15
2022-10-22T07:55:53.605Z,24.08
2022-10-22T07:58:22.122Z,17.43
2022-10-22T08:00:55.984Z,18.58
2022-10-22T08:03:23.821Z,16.02
2022-10-22T08:05:51.974Z,20.95
2022-10-22T08:08:19.772Z,15.00
2022-10-22T08:10:48.788Z,19.00
2022-10-22T08:13:16.440Z,22.98
2022-10-22T08:18:15.687Z,18.73
2022-10-22T08:20:43.238Z,23.25
2022-10-22T08:23:10.727Z,24.50
2022-10-22T08:25:38.418Z,17.20
2022-10-22T08:28:05.836Z,24.58
2022-10-22T08:30:34.009Z,21.60
2022-10-22T08:33:05.114Z,19.17
2022-10-22T08:35:32.542Z,20.50
2022-10-22T08:38:00.048Z,16.10
2022-10-22T08:40:33.862Z,22.60
2022-10-22T08:43:28.921Z,18.37
2022-10-22T08:46:12.818Z,18.30
2022-10-22T08:48:49.397Z,21.50
2022-10-22T08:51:22.703Z,20.70
2022-10-22T08:54:05.571Z,15.77
2022-10-22T08:56:35.713Z,24.02
2022-10-22T08:59:14.311Z,15.75
2022-10-22T09:01:47.289Z,16.37
2022-10-22T09:04:41.453Z,18.55
2022-10-22T09:07:09.600Z,19.27
2022-10-22T09:09:43.245Z,20.50
2022-10-22T09:12:19.294Z,15.55
2022-10-22T09:14:47.900Z,21.30
2022-10-22T09:17:36.747Z,19.92
2022-10-22T09:20:28.554Z,18.85
2022-10-22T09:23:21.214Z,21.20
2022-10-22T09:25:49.620Z,17.45
2022-10-22T09:28:17.545Z,17.37
2022-10-22T09:30:45.840Z,16.40
2022-10-22T09:33:24.819Z,14.98
2022-10-22T09:36:03.655Z,14.27
2022-10-22T09:38:40.432Z,19.05
2022-10-22T09:41:09.073Z,18.63
2022-10-22T09:43:36.512Z,14.25
2022-10-22T09:46:06.425Z,14.18
2022-10-22T09:48:40.013Z,21.50
2022-10-22T09:51:25.552Z,18.75
2022-10-22T09:53:58.849Z,15.83
2022-10-22T09:56:38.785Z,14.87
2022-10-22T09:59:06.992Z,12.48
2022-10-22T10:01:38.495Z,16.65
2022-10-22T10:04:10.025Z,22.70
2022-10-22T10:06:40.358Z,23.40
2022-10-22T10:09:16.959Z,20.45
2022-10-22T10:12:02.869Z,16.50
2022-10-22T10:14:42.678Z,15.98
2022-10-22T10:17:19.208Z,16.02
2022-10-22T10:20:01.441Z,23.70
2022-10-22T10:22:42.772Z,19.20
2022-10-22T10:25:24.579Z,24.52
2022-10-22T10:27:55.302Z,18.45
2022-10-22T10:30:26.465Z,16.83
2022-10-22T10:33:26.295Z,15.07
2022-10-22T10:36:20.273Z,15.90
2022-10-22T10:39:16.908Z,16.10
2022-10-22T10:41:53.239Z,15.38
2022-10-22T10:44:23.514Z,18.62
2022-10-22T10:47:06.241Z,15.57
2022-10-22T10:49:35.183Z,18.02
2022-10-22T10:52:33.221Z,14.43
2022-10-22T10:55:26.741Z,14.20
2022-10-22T10:58:09.539Z,12.85
2022-10-22T11:01:03.536Z,16.10
2022-10-22T11:03:57.269Z,19.70
2022-10-22T11:06:25.838Z,16.90
2022-10-22T11:09:01.138Z,15.80
2022-10-22T11:11:36.616Z,19.40
2022-10-22T11:14:15.320Z,20.53
2022-10-22T11:16:46.693Z,15.52
2022-10-22T11:19:50.161Z,16.70
2022-10-22T11:23:13.132Z,16.85
2022-10-22T11:25:39.681Z,20.35
2022-10-22T11:28:32.612Z,18.33
2022-10-22T11:31:07.263Z,16.92
2022-10-22T11:34:04.704Z,17.85
2022-10-22T11:36:38.607Z,17.23
2022-10-22T11:39:06.104Z,18.48
2022-10-22T11:41:34.511Z,25.17
2022-10-22T11:44:12.669Z,18.23
2022-10-22T11:46:46.905Z,23.62
2022-10-22T11:49:14.520Z,19.12
2022-10-22T11:51:43.639Z,25.27
2022-10-22T11:54:31.777Z,18.93
2022-10-22T11:57:14.988Z,19.33
2022-10-22T11:59:50.240Z,19.12
2022-10-22T12:02:45.484Z,17.33
2022-10-22T12:05:22.418Z,16.98
2022-10-22T12:08:16.365Z,19.20
2022-10-22T12:11:06.874Z,21.92
2022-10-22T12:14:10.652Z,20.02
2022-10-22T12:17:01.222Z,17.83
2022-10-22T12:19:37.913Z,18.37
2022-10-22T12:22:23.968Z,19.03
2022-10-22T12:24:57.225Z,16.77
2022-10-22T12:27:28.081Z,25.73
2022-10-22T12:29:57.672Z,18.45
2022-10-22T12:32:41.367Z,22.23
2022-10-22T12:35:16.107Z,20.07
2022-10-22T12:37:44.157Z,21.15
2022-10-22T12:40:20.817Z,22.00
2022-10-22T12:42:50.976Z,21.87
2022-10-22T12:45:19.231Z,17.33
2022-10-22T12:47:48.135Z,20.93
2022-10-22T12:50:18.432Z,23.62
2022-10-22T12:52:46.700Z,20.65
2022-10-22T12:55:18.531Z,21.27
2022-10-22T12:57:49.518Z,20.17
2022-10-22T13:00:25.941Z,18.83
2022-10-22T13:02:54.286Z,21.30
2022-10-22T13:05:31.948Z,21.48
2022-10-22T13:08:10.531Z,32.00
2022-10-22T13:10:41.118Z,26.42
2022-10-22T13:13:31.711Z,19.87
2022-10-22T13:16:24.357Z,23.42
2022-10-22T13:18:52.717Z,20.50
2022-10-22T13:21:33.019Z,27.08
2022-10-22T13:24:20.900Z,29.65
2022-10-22T13:26:49.979Z,22.60
2022-10-22T13:29:19.426Z,31.50
2022-10-22T13:31:52.146Z,27.75
2022-10-22T13:34:21.548Z,27.98
2022-10-22T13:36:49.324Z,24.52
2022-10-22T13:39:22.370Z,28.77
2022-10-22T13:41:51.013Z,33.40
2022-10-22T13:44:19.678Z,26.52
2022-10-22T13:46:48.543Z,28.45
2022-10-22T13:49:20.041Z,32.90
2022-10-22T13:51:47.969Z,25.63
2022-10-22T13:54:21.525Z,23.75
2022-10-22T13:56:49.158Z,26.25
2022-10-22T13:59:19.758Z,28.23
2022-10-22T14:01:50.456Z,24.02
2022-10-22T14:04:18.146Z,24.30
2022-10-22T14:06:45.645Z,26.30
2022-10-22T14:09:15.642Z,19.55
2022-10-22T14:11:43.440Z,18.50
2022-10-22T14:14:14.333Z,15.70
2022-10-22T14:16:41.884Z,19.83
2022-10-22T14:19:14.757Z,20.62
2022-10-22T14:21:42.313Z,20.75
2022-10-22T14:24:13.016Z,17.87
2022-10-22T14:26:41.127Z,17.12
2022-10-22T14:29:10.263Z,15.53
2022-10-22T14:34:10.905Z,19.12
2022-10-22T14:36:38.909Z,20.85
2022-10-22T14:39:06.503Z,20.33
2022-10-22T14:41:34.109Z,20.13
2022-10-22T14:44:01.885Z,17.48
2022-10-22T14:46:29.447Z,18.48
2022-10-22T14:48:57.009Z,23.05
2022-10-22T14:51:25.255Z,20.52
2022-10-22T14:53:52.798Z,19.50
2022-10-22T14:56:23.794Z,25.95
2022-10-22T14:58:51.750Z,29.42
2022-10-22T15:01:19.506Z,28.33
2022-10-22T15:03:47.053Z,20.48
2022-10-22T15:06:14.779Z,22.97
2022-10-22T15:08:42.469Z,21.00
2022-10-22T15:11:13.448Z,18.40
2022-10-22T15:13:42.195Z,20.77
2022-10-22T15:16:11.084Z,21.30
2022-10-22T15:18:38.727Z,20.60
2022-10-22T15:21:11.820Z,19.67
2022-10-22T15:23:40.607Z,19.12
2022-10-22T15:26:09.319Z,17.85
2022-10-22T15:28:38.631Z,24.12
2022-10-22T15:31:07.096Z,21.30
2022-10-22T15:33:35.065Z,18.10
2022-10-22T15:36:13.689Z,23.62
2022-10-22T15:38:42.025Z,28.38
2022-10-22T15:41:11.971Z,20.88
2022-10-22T15:43:39.567Z,20.13
2022-10-22T15:46:16.364Z,22.08
2022-10-22T15:48:44.889Z,20.48
2022-10-22T15:51:16.560Z,23.70
2022-10-22T15:53:44.673Z,20.17
2022-10-22T15:56:12.751Z,18.83
2022-10-22T15:58:41.341Z,23.05
2022-10-22T16:01:13.927Z,23.95
2022-10-22T16:03:42.068Z,21.65
2022-10-22T16:06:09.837Z,22.50
2022-10-22T16:08:38.358Z,22.73
2022-10-22T16:11:07.437Z,19.35
2022-10-22T16:13:37.151Z,20.33
2022-10-22T16:16:07.019Z,20.20
2022-10-22T16:18:35.235Z,18.70
2022-10-22T16:21:03.028Z,20.33
2022-10-22T16:23:30.709Z,20.10
2022-10-22T16:26:01.688Z,22.20
2022-10-22T16:28:29.533Z,22.42
2022-10-22T16:31:02.001Z,22.62
2022-10-22T16:33:39.132Z,26.30
2022-10-22T16:36:13.890Z,21.10
2022-10-22T16:38:41.884Z,23.00
2022-10-22T16:41:21.272Z,24.23
2022-10-22T16:43:52.102Z,23.77
2022-10-22T16:46:21.137Z,24.90
2022-10-22T16:48:51.208Z,23.05
2022-10-22T16:51:21.866Z,21.98
2022-10-22T16:53:53.726Z,25.77
2022-10-22T16:56:22.052Z,21.12
2022-10-22T16:58:52.830Z,21.47
2022-10-22T17:01:22.548Z,21.40
2022-10-22T17:03:51.197Z,19.55
2022-10-22T17:06:18.917Z,22.73
2022-10-22T17:08:46.730Z,25.88
2022-10-22T17:11:17.763Z,43.40
2022-10-22T17:13:47.208Z,43.38
2022-10-22T17:16:18.076Z,27.30
2022-10-22T17:18:47.478Z,24.25
2022-10-22T17:21:17.573Z,26.67
2022-10-22T17:23:46.553Z,23.60
2022-10-22T17:26:22.732Z,27.27
2022-10-22T17:28:51.176Z,27.13
2022-10-22T17:31:22.513Z,31.92
2022-10-22T17:33:52.414Z,24.75
2022-10-22T17:36:20.977Z,25.07
2022-10-22T17:38:50.650Z,28.23
2022-10-22T17:41:27.294Z,28.00
2022-10-22T17:43:56.660Z,27.83
2022-10-22T17:46:28.305Z,25.02
2022-10-22T17:49:06.553Z,25.20
2022-10-22T17:51:34.531Z,27.98
2022-10-22T17:54:04.669Z,26.10
2022-10-22T17:56:35.471Z,25.20
2022-10-22T17:59:03.155Z,24.20
2022-10-22T18:01:33.282Z,25.97
2022-10-22T18:04:05.290Z,27.40
2022-10-22T18:06:33.470Z,23.85
2022-10-22T18:09:05.805Z,27.20
2022-10-22T18:11:36.501Z,28.48
2022-10-22T18:14:04.858Z,25.83
2022-10-22T18:16:35.658Z,25.88
2022-10-22T18:19:03.530Z,27.77
2022-10-22T18:21:31.723Z,29.05
2022-10-22T18:23:59.947Z,26.83
2022-10-22T18:26:27.693Z,27.70
2022-10-22T18:28:57.039Z,25.90
2022-10-22T18:31:28.202Z,26.20
2022-10-22T18:33:56.770Z,26.17
2022-10-22T18:36:25.827Z,25.77
2022-10-22T18:38:58.880Z,27.73
2022-10-22T18:41:28.403Z,25.05
2022-10-22T18:44:04.593Z,22.77
2022-10-22T18:46:34.870Z,24.40
2022-10-22T18:49:03.168Z,24.63
2022-10-22T18:51:31.707Z,24.90
2022-10-22T18:54:11.262Z,25.02
2022-10-22T18:56:48.331Z,28.67
2022-10-22T18:59:19.701Z,30.33
2022-10-22T19:01:48.355Z,27.15
2022-10-22T19:04:16.158Z,28.90
2022-10-22T19:06:46.477Z,31.42
2022-10-22T19:09:15.725Z,31.42
2022-10-22T19:11:44.875Z,27.65
2022-10-22T19:14:13.972Z,28.40
2022-10-22T19:16:41.964Z,28.03
2022-10-22T19:19:11.346Z,30.42
2022-10-22T19:21:39.272Z,28.73
2022-10-22T19:24:07.264Z,28.65
2022-10-22T19:26:35.312Z,29.40
2022-10-22T19:29:04.132Z,30.13
2022-10-22T19:31:32.196Z,29.27
2022-10-22T19:34:01.164Z,27.77
2022-10-22T19:36:30.811Z,29.15
2022-10-22T19:39:00.607Z,27.33
2022-10-22T19:41:29.945Z,26.83
2022-10-22T19:43:59.981Z,27.35
2022-10-22T19:46:30.085Z,27.08
2022-10-22T19:48:57.838Z,24.87
2022-10-22T19:51:29.785Z,24.85
2022-10-22T19:53:59.836Z,25.30
2022-10-22T19:56:28.362Z,26.60
2022-10-22T19:58:56.662Z,24.08
2022-10-22T20:01:25.555Z,24.92
2022-10-22T20:03:54.970Z,26.27
2022-10-22T20:06:23.722Z,27.07
2022-10-22T20:08:55.175Z,26.52
2022-10-22T20:11:29.400Z,23.10
2022-10-22T20:13:57.619Z,24.00
2022-10-22T20:16:29.588Z,24.12
2022-10-22T20:19:02.639Z,25.40
2022-10-22T20:21:31.537Z,27.37
2022-10-22T20:23:59.418Z,26.37
2022-10-22T20:26:28.552Z,28.90
2022-10-22T20:28:57.398Z,27.67
2022-10-22T20:31:28.544Z,27.97
2022-10-22T20:33:59.505Z,28.75
2022-10-22T20:36:28.934Z,30.98
2022-10-22T20:39:06.365Z,28.42
2022-10-22T20:41:35.032Z,28.77
2022-10-22T20:44:03.047Z,25.90
2022-10-22T20:46:34.046Z,29.70
2022-10-22T20:49:04.667Z,33.50
2022-10-22T20:51:33.109Z,31.55
2022-10-22T20:54:00.833Z,27.17
2022-10-22T20:56:28.620Z,26.23
2022-10-22T20:59:04.665Z,28.00
2022-10-22T21:01:36.363Z,28.60
2022-10-22T21:04:04.421Z,25.30
2022-10-22T21:06:32.393Z,28.10
2022-10-22T21:08:59.935Z,26.07
2022-10-22T21:11:27.725Z,22.45
2022-10-22T21:13:55.218Z,24.25
2022-10-22T21:16:22.722Z,28.10
2022-10-22T21:18:50.514Z,24.63
2022-10-22T21:21:19.048Z,23.10
2022-10-22T21:23:46.771Z,24.08
2022-10-22T21:26:14.536Z,23.67
2022-10-22T21:28:41.989Z,25.48
2022-10-22T21:31:10.788Z,22.85
2022-10-22T21:33:39.877Z,24.40
2022-10-22T21:36:09.088Z,22.75
2022-10-22T21:38:37.542Z,22.25
2022-10-22T21:41:06.870Z,21.62
2022-10-22T21:43:36.732Z,21.42
2022-10-22T21:46:08.662Z,21.47
2022-10-22T21:48:37.645Z,22.48
2022-10-22T21:51:10.362Z,22.15
2022-10-22T21:53:38.771Z,23.10
2022-10-22T21:56:07.006Z,22.83
2022-10-22T21:58:35.468Z,23.47
2022-10-22T22:01:03.601Z,22.48
2022-10-22T22:03:31.377Z,22.35
2022-10-22T22:06:05.317Z,23.48
2022-10-22T22:08:34.079Z,23.10
2022-10-22T22:11:06.982Z,22.10
2022-10-22T22:13:34.806Z,22.23
2022-10-22T22:16:04.435Z,22.85
2022-10-22T22:18:33.039Z,29.98
2022-10-22T22:21:04.902Z,24.23
2022-10-22T22:23:33.033Z,25.90
2022-10-22T22:26:01.568Z,26.17
2022-10-22T22:28:29.928Z,24.45
2022-10-22T22:30:57.589Z,24.02
2022-10-22T22:33:25.547Z,21.85
2022-10-22T22:35:53.118Z,22.60
2022-10-22T22:38:20.564Z,22.27
2022-10-22T22:40:48.293Z,21.95
2022-10-22T22:43:15.734Z,23.35
2022-10-22T22:45:43.251Z,20.73
2022-10-22T22:48:10.971Z,22.40
2022-10-22T22:50:38.383Z,22.33
2022-10-22T22:53:05.805Z,21.98
2022-10-22T22:55:33.493Z,20.75
2022-10-22T22:58:01.059Z,20.80
2022-10-22T23:00:28.723Z,21.07
2022-10-22T23:02:56.628Z,23.80
2022-10-22T23:05:24.324Z,23.45
2022-10-22T23:07:51.992Z,21.48
2022-10-22T23:10:19.888Z,21.02
2022-10-22T23:12:47.291Z,21.67
2022-10-22T23:15:14.876Z,19.33
2022-10-22T23:17:42.589Z,21.42
2022-10-22T23:20:10.395Z,19.70
2022-10-22T23:22:37.824Z,22.67
2022-10-22T23:25:06.010Z,24.70
2022-10-22T23:27:33.444Z,23.62
2022-10-22T23:30:00.921Z,21.83
2022-10-22T23:32:28.684Z,23.05
2022-10-22T23:34:56.186Z,20.30
2022-10-22T23:37:23.598Z,23.00
2022-10-22T23:39:51.512Z,20.92
2022-10-22T23:42:18.972Z,20.83
2022-10-22T23:44:46.454Z,22.15
2022-10-22T23:47:14.239Z,21.23
2022-10-22T23:49:41.688Z,21.27
2022-10-22T23:52:09.137Z,21.98
2022-10-22T23:54:36.906Z,22.62
2022-10-22T23:57:04.780Z,22.35
2022-10-22T23:59:32.279Z,22.77
